IN-0036 weather

Pelling Helipad
Pelling City, Sikkim, India

Public forecast

Using degrees Celsius for public forecast. Weather courtesy of forecast.io.

METAR (pilot weather report)

Closest report is Bagdogra Airport, 37.5 nm (69.5 km) S. Retrieved 2019/07/17 06:30 UTC (0 seconds ago):

VEBD 170630Z 12004KT 6000 SCT025 BKN030 33/25 Q1002 NOSIG

TAF (pilot weather forecast)

Closest forecast is Bagdogra Airport, 37.5 nm (69.5 km) S. Retrieved 2019/07/17 06:30 UTC (0 seconds ago):

TAF VEBD 170330Z 1706/1718 07005KT 6000 SCT025 SCT090 TEMPO 2000 TSRA SCT015 SCT020 1708/1713 FEW030CB BKN080